Time;durP1;ratioP1;P1;durP2;ratioP2;P2;SDS_P1;SDS_P2;PMS_P1;PMS_P2;Temp;Humidity;BMP_temperature;BMP_pressure;BME280_temperature;BME280_humidity;BME280_pressure;Samples;Min_cycle;Max_cycle;Signal;HPM_P1;HPM_P2
2023/10/15 00:01:57;;;;;;;16.77;16.17;;;11.40;99.90;;;;;;5072189;28;20214;-66
2023/10/15 00:04:24;;;;;;;14.97;14.47;;;11.40;99.90;;;;;;5071986;28;20223;-67
2023/10/15 00:06:52;;;;;;;19.57;18.87;;;11.40;99.90;;;;;;5066530;28;20306;-66
2023/10/15 00:09:20;;;;;;;15.43;14.93;;;11.40;99.90;;;;;;5070787;28;20330;-66
2023/10/15 00:11:47;;;;;;;19.67;19.00;;;11.40;99.90;;;;;;5068029;28;20262;-65
2023/10/15 00:14:14;;;;;;;18.17;17.50;;;11.40;99.90;;;;;;5068095;28;20219;-66
2023/10/15 00:16:41;;;;;;;16.57;15.97;;;11.50;99.90;;;;;;5075105;28;20580;-66
2023/10/15 00:19:10;;;;;;;16.03;15.50;;;11.40;99.90;;;;;;5072911;28;20265;-66
2023/10/15 00:21:37;;;;;;;16.43;15.83;;;11.40;99.90;;;;;;5076975;28;20249;-66
2023/10/15 00:24:10;;;;;;;20.93;20.17;;;11.50;99.90;;;;;;5067162;28;20235;-66
2023/10/15 00:26:38;;;;;;;16.87;16.27;;;11.50;99.90;;;;;;5070482;28;20286;-66
2023/10/15 00:29:08;;;;;;;15.47;14.93;;;11.50;99.90;;;;;;5064771;28;20273;-66
2023/10/15 00:31:36;;;;;;;18.40;17.77;;;11.50;99.90;;;;;;5064040;28;20208;-66
2023/10/15 00:34:12;;;;;;;16.30;15.77;;;11.60;99.90;;;;;;5066461;28;20219;-66
2023/10/15 00:36:39;;;;;;;16.03;15.43;;;11.60;99.90;;;;;;5067372;28;20298;-66
2023/10/15 00:39:19;;;;;;;16.15;15.57;;;11.60;99.90;;;;;;5067721;28;20210;-66
2023/10/15 00:41:47;;;;;;;15.80;15.23;;;11.60;99.90;;;;;;5066600;28;20703;-67
2023/10/15 00:44:15;;;;;;;21.03;20.30;;;11.60;99.90;;;;;;5064631;28;20241;-66
2023/10/15 00:46:45;;;;;;;17.40;16.73;;;11.60;99.90;;;;;;5084072;28;20276;-66
2023/10/15 00:49:13;;;;;;;18.47;17.83;;;11.60;99.90;;;;;;5079828;28;20203;-67
2023/10/15 00:51:41;;;;;;;16.60;16.00;;;11.60;99.90;;;;;;5086188;28;20207;-67
2023/10/15 00:54:15;;;;;;;17.65;17.02;;;11.60;99.90;;;;;;5077313;28;20226;-66
2023/10/15 00:56:44;;;;;;;16.52;15.93;;;11.60;99.90;;;;;;5072957;28;20200;-66
2023/10/15 00:59:17;;;;;;;16.20;15.63;;;11.50;99.90;;;;;;5069568;28;20661;-67
2023/10/15 01:01:53;;;;;;;17.67;17.07;;;11.40;99.90;;;;;;5071787;28;20254;-66
2023/10/15 01:04:24;;;;;;;19.23;18.53;;;11.40;99.90;;;;;;5063737;28;20340;-66
2023/10/15 01:06:51;;;;;;;17.48;16.85;;;11.40;99.90;;;;;;5066862;28;20259;-66
2023/10/15 01:09:20;;;;;;;22.57;21.77;;;11.50;99.90;;;;;;5065248;28;20231;-65
2023/10/15 01:11:55;;;;;;;16.40;15.83;;;11.50;99.90;;;;;;5070447;28;20227;-66
2023/10/15 01:14:28;;;;;;;19.30;18.57;;;11.50;99.90;;;;;;5079810;28;20236;-67
2023/10/15 01:16:55;;;;;;;17.60;16.97;;;11.40;99.90;;;;;;5077492;28;20203;-66
2023/10/15 01:19:31;;;;;;;20.50;19.80;;;11.30;99.90;;;;;;5068295;28;20211;-66
2023/10/15 01:22:01;;;;;;;19.83;19.13;;;11.30;99.90;;;;;;5068827;28;20219;-66
2023/10/15 01:24:32;;;;;;;18.63;17.93;;;11.30;99.90;;;;;;5064610;28;20222;-66
2023/10/15 01:27:08;;;;;;;17.37;16.73;;;11.30;99.90;;;;;;5064957;28;20290;-66
2023/10/15 01:29:35;;;;;;;17.20;16.60;;;11.30;99.90;;;;;;5064710;28;20305;-65
2023/10/15 01:32:07;;;;;;;16.08;15.52;;;11.40;99.90;;;;;;5064759;28;20701;-65
2023/10/15 01:34:37;;;;;;;16.30;15.70;;;11.50;99.90;;;;;;5064633;28;20231;-66
2023/10/15 01:37:13;;;;;;;15.77;15.27;;;11.60;99.90;;;;;;5063867;28;20278;-65
2023/10/15 01:39:45;;;;;;;15.53;15.03;;;11.60;99.90;;;;;;5064664;28;20582;-66
2023/10/15 01:42:31;;;;;;;15.32;14.82;;;11.60;99.90;;;;;;5064339;28;20221;-66
2023/10/15 01:45:09;;;;;;;15.93;15.37;;;11.70;99.90;;;;;;5065805;28;20233;-66
2023/10/15 01:47:36;;;;;;;16.43;15.83;;;11.70;99.90;;;;;;5063425;28;20207;-66
2023/10/15 01:50:08;;;;;;;15.65;15.07;;;11.70;99.90;;;;;;5065021;28;20195;-66
2023/10/15 01:52:40;;;;;;;15.73;15.13;;;11.80;99.90;;;;;;5063610;28;20211;-67
2023/10/15 01:55:07;;;;;;;17.10;16.40;;;11.80;99.90;;;;;;5062800;28;20302;-66
2023/10/15 01:57:37;;;;;;;16.50;15.90;;;11.80;99.90;;;;;;5063249;28;20530;-65
2023/10/15 02:00:12;;;;;;;16.40;15.80;;;11.90;99.90;;;;;;5062511;28;20245;-65
2023/10/15 02:02:38;;;;;;;16.27;15.67;;;11.90;99.90;;;;;;5062699;28;20633;-65
2023/10/15 02:05:16;;;;;;;16.67;16.08;;;11.90;99.90;;;;;;5065401;28;20302;-66
2023/10/15 02:07:44;;;;;;;17.02;16.42;;;11.90;99.90;;;;;;5058844;28;20283;-65
2023/10/15 02:10:13;;;;;;;16.33;15.80;;;11.90;99.90;;;;;;5067821;28;20227;-66
2023/10/15 02:12:41;;;;;;;16.73;16.13;;;11.80;99.90;;;;;;5065510;28;20276;-65
2023/10/15 02:15:14;;;;;;;18.57;17.90;;;11.80;99.90;;;;;;5071492;28;20289;-65
2023/10/15 02:17:43;;;;;;;16.35;15.75;;;11.80;99.90;;;;;;5071717;28;20237;-64
2023/10/15 02:20:13;;;;;;;16.07;15.50;;;11.70;99.90;;;;;;5072352;28;20207;-66
2023/10/15 02:22:40;;;;;;;15.60;15.10;;;11.70;99.90;;;;;;5066577;28;20254;-65
2023/10/15 02:25:08;;;;;;;15.63;15.02;;;11.70;99.90;;;;;;5052327;28;20730;-66
2023/10/15 02:27:35;;;;;;;16.37;15.77;;;11.70;99.90;;;;;;5051891;28;20214;-65
2023/10/15 02:30:06;;;;;;;16.07;15.50;;;11.80;99.90;;;;;;5051505;28;20589;-64
2023/10/15 02:32:33;;;;;;;17.30;16.67;;;11.80;99.90;;;;;;5065260;28;20207;-65
2023/10/15 02:35:05;;;;;;;16.57;16.00;;;11.80;99.90;;;;;;5064323;28;20292;-66
2023/10/15 02:37:32;;;;;;;16.17;15.60;;;11.80;99.90;;;;;;5062442;28;20214;-66
2023/10/15 02:39:59;;;;;;;16.17;15.63;;;11.70;99.90;;;;;;5068080;28;20207;-65
2023/10/15 02:42:31;;;;;;;15.87;15.27;;;11.70;99.90;;;;;;5071374;28;20284;-65
2023/10/15 02:44:59;;;;;;;15.67;15.17;;;11.70;99.90;;;;;;5071372;28;20231;-64
2023/10/15 02:47:41;;;;;;;26.60;25.53;;;11.70;99.90;;;;;;5071549;28;20591;-66
2023/10/15 02:50:10;;;;;;;16.73;16.13;;;11.70;99.90;;;;;;5071166;28;20219;-65
2023/10/15 02:52:43;;;;;;;18.93;18.27;;;11.70;99.90;;;;;;5071482;28;20286;-65
2023/10/15 02:55:10;;;;;;;16.43;15.83;;;11.70;99.90;;;;;;5071021;28;20850;-66
2023/10/15 02:57:38;;;;;;;15.87;15.30;;;11.70;99.90;;;;;;5071064;28;20690;-66
2023/10/15 03:00:13;;;;;;;16.70;16.10;;;11.60;99.90;;;;;;5070707;28;20235;-65
2023/10/15 03:02:43;;;;;;;16.17;15.63;;;11.60;99.90;;;;;;5071212;28;20593;-66
2023/10/15 03:05:13;;;;;;;17.45;16.85;;;11.60;99.90;;;;;;5071163;28;20322;-65
2023/10/15 03:07:42;;;;;;;16.40;15.83;;;11.60;99.90;;;;;;5071541;28;20257;-66
2023/10/15 03:10:10;;;;;;;16.07;15.53;;;11.60;99.90;;;;;;5070012;28;20207;-66
2023/10/15 03:12:43;;;;;;;16.85;16.27;;;11.60;99.90;;;;;;5067330;28;20679;-66
2023/10/15 03:15:11;;;;;;;17.83;17.20;;;11.60;99.90;;;;;;5066948;28;20239;-65
2023/10/15 03:17:40;;;;;;;17.90;17.27;;;11.70;99.90;;;;;;5065374;28;20230;-66
2023/10/15 03:20:25;;;;;;;20.38;19.67;;;11.70;99.90;;;;;;5054713;28;20243;-65
2023/10/15 03:22:58;;;;;;;17.77;17.15;;;11.80;99.90;;;;;;5050849;28;20240;-66
2023/10/15 03:25:26;;;;;;;19.77;19.07;;;11.80;99.90;;;;;;5050610;28;20231;-65
2023/10/15 03:27:54;;;;;;;21.47;20.70;;;11.80;99.90;;;;;;5050577;28;20207;-65
2023/10/15 03:30:23;;;;;;;21.00;20.25;;;11.80;99.90;;;;;;5050902;28;20218;-65
2023/10/15 03:32:52;;;;;;;18.63;17.92;;;11.70;99.90;;;;;;5050792;28;20204;-65
2023/10/15 03:35:32;;;;;;;16.37;15.80;;;11.70;99.90;;;;;;5065910;28;20293;-65
2023/10/15 03:38:04;;;;;;;19.00;18.33;;;11.80;99.90;;;;;;5070722;28;20218;-66
2023/10/15 03:40:32;;;;;;;23.37;22.57;;;11.90;99.90;;;;;;5070890;28;20243;-66
2023/10/15 03:43:01;;;;;;;20.93;20.23;;;11.90;99.90;;;;;;5070705;28;20694;-66
2023/10/15 03:45:29;;;;;;;25.47;24.53;;;11.90;99.90;;;;;;5070578;28;20257;-65
2023/10/15 03:47:57;;;;;;;20.30;19.60;;;11.90;99.90;;;;;;5070446;28;20239;-64
2023/10/15 03:50:28;;;;;;;20.83;20.13;;;11.90;99.90;;;;;;5070368;28;20239;-65
2023/10/15 03:52:56;;;;;;;20.23;19.53;;;11.90;99.90;;;;;;5062890;28;20226;-66
2023/10/15 03:55:23;;;;;;;19.67;18.97;;;11.90;99.90;;;;;;5065623;28;20228;-66
2023/10/15 03:57:53;;;;;;;21.33;20.63;;;11.80;99.90;;;;;;5079410;28;20217;-66
2023/10/15 04:00:34;;;;;;;19.63;18.92;;;11.80;99.90;;;;;;5080740;28;20211;-67
2023/10/15 04:03:07;;;;;;;19.20;18.40;;;11.90;99.90;;;;;;5087737;28;20303;-67
2023/10/15 04:05:35;;;;;;;17.97;17.37;;;11.90;99.90;;;;;;5081800;28;20211;-64
2023/10/15 04:08:02;;;;;;;19.83;19.13;;;11.90;99.90;;;;;;5070268;28;20666;-64
2023/10/15 04:10:33;;;;;;;20.73;20.00;;;11.90;99.90;;;;;;5070174;28;20211;-65
2023/10/15 04:13:00;;;;;;;20.23;19.53;;;11.90;99.90;;;;;;5070047;28;20575;-64
2023/10/15 04:15:30;;;;;;;21.33;20.60;;;11.90;99.90;;;;;;5070004;28;20656;-66
2023/10/15 04:17:57;;;;;;;19.13;18.42;;;11.90;99.90;;;;;;5070329;28;20229;-65
2023/10/15 04:20:26;;;;;;;20.93;20.20;;;11.90;99.90;;;;;;5069965;28;20211;-66
2023/10/15 04:22:55;;;;;;;21.70;20.93;;;11.90;99.90;;;;;;5070004;28;20231;-65
2023/10/15 04:25:25;;;;;;;21.63;20.88;;;11.90;99.90;;;;;;5069823;28;20666;-69
2023/10/15 04:27:52;;;;;;;23.37;22.57;;;11.90;99.90;;;;;;5070094;28;20211;-65
2023/10/15 04:30:19;;;;;;;21.97;21.20;;;11.90;99.90;;;;;;5069537;28;20214;-64
2023/10/15 04:32:47;;;;;;;22.17;21.37;;;12.00;99.90;;;;;;5070238;28;20238;-65
2023/10/15 04:35:17;;;;;;;18.17;17.47;;;11.90;99.90;;;;;;5069753;28;20239;-67
2023/10/15 04:37:44;;;;;;;20.75;20.05;;;12.00;99.90;;;;;;5069974;28;20643;-64
2023/10/15 04:40:13;;;;;;;20.83;20.13;;;11.90;99.90;;;;;;5069655;28;20685;-64
2023/10/15 04:42:46;;;;;;;20.80;20.10;;;12.00;99.90;;;;;;5057897;28;20296;-65
2023/10/15 04:45:23;;;;;;;19.60;18.90;;;11.90;99.90;;;;;;5069625;28;20223;-64
2023/10/15 04:47:52;;;;;;;20.80;20.10;;;11.90;99.90;;;;;;5069904;28;20598;-65
2023/10/15 04:50:19;;;;;;;22.05;21.30;;;12.00;99.90;;;;;;5067660;28;20612;-64
2023/10/15 04:52:46;;;;;;;20.70;19.95;;;12.00;99.90;;;;;;5065302;28;20261;-64
2023/10/15 04:55:17;;;;;;;20.13;19.40;;;12.00;99.90;;;;;;5049292;28;20232;-66
2023/10/15 04:57:45;;;;;;;24.70;23.83;;;12.10;99.90;;;;;;5049502;28;20742;-64
2023/10/15 05:00:14;;;;;;;21.45;20.70;;;12.20;99.90;;;;;;5049537;28;20219;-64
2023/10/15 05:02:41;;;;;;;21.50;20.73;;;12.10;99.90;;;;;;5055488;28;20245;-64
2023/10/15 05:05:11;;;;;;;20.77;20.05;;;12.10;99.90;;;;;;5072504;28;20231;-65
2023/10/15 05:07:37;;;;;;;23.67;22.85;;;12.00;99.90;;;;;;5067224;28;20233;-66
2023/10/15 05:10:04;;;;;;;25.73;24.83;;;12.00;99.90;;;;;;5073155;28;20214;-65
2023/10/15 05:12:32;;;;;;;26.03;25.13;;;12.10;99.90;;;;;;5073032;28;20638;-64
2023/10/15 05:14:59;;;;;;;23.83;23.00;;;12.00;99.90;;;;;;5074169;28;20592;-64
2023/10/15 05:17:26;;;;;;;23.03;22.23;;;12.10;99.90;;;;;;5073363;28;20207;-64
2023/10/15 05:19:53;;;;;;;24.63;23.80;;;12.10;99.90;;;;;;5073239;28;20591;-66
2023/10/15 05:22:20;;;;;;;24.07;23.17;;;12.10;99.90;;;;;;5062089;28;20285;-64
2023/10/15 05:24:47;;;;;;;23.60;22.80;;;12.10;99.90;;;;;;5066161;28;20720;-65
2023/10/15 05:27:14;;;;;;;24.53;23.63;;;12.10;99.90;;;;;;5075793;28;20214;-64
2023/10/15 05:29:42;;;;;;;25.90;24.90;;;12.20;99.90;;;;;;5073135;28;20207;-66
2023/10/15 05:32:09;;;;;;;23.67;22.83;;;12.10;99.90;;;;;;5072737;28;20674;-65
2023/10/15 05:34:35;;;;;;;24.37;23.50;;;12.10;99.90;;;;;;5072667;28;20230;-64
2023/10/15 05:37:02;;;;;;;27.27;26.30;;;12.10;99.90;;;;;;5072882;28;20635;-66
2023/10/15 05:39:29;;;;;;;26.65;25.70;;;12.20;99.90;;;;;;5072492;28;20243;-65
2023/10/15 05:41:55;;;;;;;25.23;24.33;;;12.20;99.90;;;;;;5073171;28;20694;-67
2023/10/15 05:44:23;;;;;;;25.02;24.15;;;12.20;99.90;;;;;;5073955;28;20238;-66
2023/10/15 05:46:51;;;;;;;27.33;26.37;;;12.20;99.90;;;;;;5072921;28;20207;-66
2023/10/15 05:49:18;;;;;;;25.85;24.92;;;12.10;99.90;;;;;;5072274;28;20203;-63
2023/10/15 05:51:45;;;;;;;25.30;24.40;;;12.20;99.90;;;;;;5072612;28;20210;-65
2023/10/15 05:54:12;;;;;;;24.67;23.80;;;12.20;99.90;;;;;;5072727;28;20325;-67
2023/10/15 05:56:39;;;;;;;24.73;23.87;;;12.20;99.90;;;;;;5072376;28;20666;-65
2023/10/15 05:59:06;;;;;;;26.23;25.27;;;12.20;99.90;;;;;;5072060;28;20650;-64
2023/10/15 06:01:33;;;;;;;27.77;26.80;;;12.30;99.90;;;;;;5073563;28;20364;-65
2023/10/15 06:04:02;;;;;;;26.87;25.97;;;12.20;99.90;;;;;;5070447;28;20236;-66
2023/10/15 06:06:29;;;;;;;27.60;26.60;;;12.20;99.90;;;;;;5078211;28;20261;-65
2023/10/15 06:08:59;;;;;;;24.77;23.87;;;12.20;99.90;;;;;;5077186;28;20278;-66
2023/10/15 06:11:26;;;;;;;28.13;27.13;;;12.30;99.90;;;;;;5075206;28;20203;-65
2023/10/15 06:13:52;;;;;;;24.13;23.33;;;12.30;99.90;;;;;;5074837;28;20249;-66
2023/10/15 06:16:19;;;;;;;27.60;26.63;;;12.30;99.90;;;;;;5071106;28;20218;-65
2023/10/15 06:18:46;;;;;;;25.77;24.87;;;12.30;99.90;;;;;;5071655;28;20204;-66
2023/10/15 06:21:15;;;;;;;22.52;21.73;;;12.30;99.90;;;;;;5071880;28;20207;-65
2023/10/15 06:23:42;;;;;;;23.87;23.03;;;12.30;99.90;;;;;;5071747;28;20242;-66
2023/10/15 06:26:09;;;;;;;26.50;25.53;;;12.20;99.90;;;;;;5071855;28;20207;-66
2023/10/15 06:28:36;;;;;;;26.00;25.10;;;12.20;99.90;;;;;;5072070;28;20207;-66
2023/10/15 06:31:04;;;;;;;28.43;27.43;;;12.30;99.90;;;;;;5071522;28;20207;-69
2023/10/15 06:33:31;;;;;;;26.07;25.17;;;12.30;99.90;;;;;;5072167;28;20227;-67
2023/10/15 06:35:58;;;;;;;24.57;23.73;;;12.40;99.90;;;;;;5065717;28;20207;-67
2023/10/15 06:38:26;;;;;;;26.23;25.33;;;12.40;99.90;;;;;;5065177;28;20242;-64
2023/10/15 06:40:52;;;;;;;26.93;26.00;;;12.40;99.90;;;;;;5065935;28;20203;-66
2023/10/15 06:43:19;;;;;;;26.13;25.23;;;12.50;99.90;;;;;;5059827;28;20226;-65
2023/10/15 06:45:47;;;;;;;23.33;22.53;;;12.50;99.90;;;;;;5064581;28;20666;-65
2023/10/15 06:48:13;;;;;;;22.23;21.43;;;12.50;99.90;;;;;;5051759;28;20208;-66
2023/10/15 06:50:41;;;;;;;21.50;20.70;;;12.40;99.90;;;;;;5051397;28;20208;-65
2023/10/15 06:53:07;;;;;;;22.57;21.77;;;12.30;99.90;;;;;;5052053;28;20203;-64
2023/10/15 06:55:35;;;;;;;21.73;20.97;;;12.30;99.90;;;;;;5070421;28;20214;-65
2023/10/15 06:58:02;;;;;;;20.10;19.40;;;12.50;99.90;;;;;;5071279;28;20218;-65
2023/10/15 07:00:31;;;;;;;20.35;19.65;;;12.50;99.90;;;;;;5071514;28;20222;-64
2023/10/15 07:02:58;;;;;;;20.93;20.23;;;12.40;99.90;;;;;;5071413;28;20717;-66
2023/10/15 07:05:25;;;;;;;18.83;18.23;;;12.30;99.90;;;;;;5071750;28;20824;-66
2023/10/15 07:07:52;;;;;;;20.93;20.23;;;12.30;99.90;;;;;;5071677;28;20598;-65
2023/10/15 07:10:19;;;;;;;20.30;19.60;;;12.30;99.90;;;;;;5071044;28;20211;-67
2023/10/15 07:12:50;;;;;;;20.05;19.35;;;12.20;99.90;;;;;;5070050;28;20204;-66
2023/10/15 07:15:20;;;;;;;19.23;18.53;;;12.40;99.90;;;;;;5071126;28;20242;-67
2023/10/15 07:17:49;;;;;;;20.53;19.83;;;12.40;99.90;;;;;;5071174;28;20207;-65
2023/10/15 07:20:18;;;;;;;20.97;20.23;;;12.50;99.90;;;;;;5070808;28;20242;-65
2023/10/15 07:22:46;;;;;;;19.92;19.20;;;12.60;99.90;;;;;;5071458;28;20250;-65
2023/10/15 07:25:14;;;;;;;19.00;18.30;;;12.60;99.90;;;;;;5070581;28;20227;-69
2023/10/15 07:27:41;;;;;;;17.53;16.93;;;12.50;99.90;;;;;;5067676;28;20282;-65
2023/10/15 07:30:13;;;;;;;19.67;18.97;;;12.50;99.90;;;;;;5050911;28;20215;-64
2023/10/15 07:32:41;;;;;;;20.87;20.10;;;12.40;99.90;;;;;;5051146;28;20218;-66
2023/10/15 07:35:11;;;;;;;20.33;19.63;;;12.40;99.90;;;;;;5050746;28;20332;-65
2023/10/15 07:37:39;;;;;;;19.53;18.83;;;12.30;99.90;;;;;;5050810;28;20266;-67
2023/10/15 07:40:14;;;;;;;17.93;17.23;;;12.30;99.90;;;;;;5050890;28;20262;-66
2023/10/15 07:42:41;;;;;;;18.77;18.17;;;12.30;99.90;;;;;;5050919;28;20257;-66
2023/10/15 07:45:08;;;;;;;21.20;20.45;;;12.30;99.90;;;;;;5050257;28;20241;-67
2023/10/15 07:47:37;;;;;;;22.00;21.20;;;12.30;99.90;;;;;;5062182;28;20222;-65
2023/10/15 07:50:05;;;;;;;18.33;17.63;;;12.40;99.90;;;;;;5063257;28;20203;-66
2023/10/15 07:52:31;;;;;;;20.57;19.87;;;12.40;99.90;;;;;;5070785;28;20214;-65
2023/10/15 07:54:59;;;;;;;20.90;20.20;;;12.60;99.90;;;;;;5063273;28;20230;-66
2023/10/15 07:57:26;;;;;;;20.03;19.33;;;12.70;99.90;;;;;;5067866;28;20286;-65
2023/10/15 07:59:54;;;;;;;17.13;16.43;;;12.70;99.90;;;;;;5066010;28;20214;-67
2023/10/15 08:02:23;;;;;;;17.40;16.80;;;12.70;99.90;;;;;;5064172;28;20207;-65
2023/10/15 08:04:54;;;;;;;15.77;15.17;;;12.70;99.90;;;;;;5065683;28;20229;-66
2023/10/15 08:07:21;;;;;;;16.80;16.20;;;12.70;99.90;;;;;;5067278;28;20264;-65
2023/10/15 08:09:56;;;;;;;14.70;14.20;;;12.80;99.90;;;;;;5070444;28;20294;-66
2023/10/15 08:12:27;;;;;;;15.60;15.00;;;12.80;99.90;;;;;;5063923;28;20211;-65
2023/10/15 08:14:57;;;;;;;15.20;14.70;;;12.90;99.90;;;;;;5065206;28;20227;-66
2023/10/15 08:17:24;;;;;;;14.65;14.15;;;13.10;99.90;;;;;;5068820;28;20204;-66
2023/10/15 08:19:53;;;;;;;14.23;13.73;;;13.20;99.90;;;;;;5070576;28;20207;-67
2023/10/15 08:22:20;;;;;;;13.45;12.95;;;13.20;99.90;;;;;;5070427;28;20218;-66
2023/10/15 08:24:47;;;;;;;13.13;12.63;;;13.20;99.90;;;;;;5071070;28;20238;-66
2023/10/15 08:27:13;;;;;;;13.10;12.63;;;13.20;99.90;;;;;;5068879;28;20207;-66
2023/10/15 08:29:40;;;;;;;13.20;12.70;;;13.30;99.90;;;;;;5069523;28;20210;-66
2023/10/15 08:32:10;;;;;;;13.07;12.57;;;13.60;99.90;;;;;;5065495;28;20203;-65
2023/10/15 08:34:36;;;;;;;12.93;12.43;;;13.90;99.90;;;;;;5063584;28;20315;-66
2023/10/15 08:37:07;;;;;;;12.63;12.23;;;14.30;99.90;;;;;;5076648;22;20228;-78
2023/10/15 08:39:43;;;;;;;13.77;13.27;;;14.50;99.90;;;;;;5050950;28;20223;-63
2023/10/15 08:42:14;;;;;;;13.83;13.33;;;14.70;99.90;;;;;;5051720;28;20569;-64
2023/10/15 08:44:41;;;;;;;13.40;12.90;;;14.90;99.90;;;;;;5050085;28;20767;-63
2023/10/15 08:47:10;;;;;;;13.87;13.37;;;15.10;99.90;;;;;;5050766;28;20294;-63
2023/10/15 08:49:50;;;;;;;19.50;18.60;;;15.00;99.90;;;;;;5046732;28;20253;-64
2023/10/15 08:52:19;;;;;;;16.15;15.55;;;14.40;99.90;;;;;;5052786;28;20211;-64
2023/10/15 08:54:47;;;;;;;15.93;15.30;;;13.80;99.90;;;;;;5052076;28;20670;-64
2023/10/15 08:57:15;;;;;;;18.83;18.10;;;13.40;99.90;;;;;;5051913;28;20201;-64
2023/10/15 08:59:43;;;;;;;14.03;13.50;;;13.10;99.90;;;;;;5052172;28;20732;-63
2023/10/15 09:02:10;;;;;;;14.20;13.70;;;13.00;99.90;;;;;;5055282;28;20259;-62
2023/10/15 09:04:37;;;;;;;13.45;12.85;;;12.90;99.90;;;;;;5056311;28;20713;-63
2023/10/15 09:07:04;;;;;;;13.03;12.53;;;12.80;99.90;;;;;;5052069;28;20590;-64
2023/10/15 09:09:33;;;;;;;13.65;13.15;;;12.70;99.90;;;;;;5057777;28;20203;-62
2023/10/15 09:12:00;;;;;;;14.65;14.10;;;12.70;99.90;;;;;;5060140;28;20204;-63
2023/10/15 09:14:40;;;;;;;14.93;14.27;;;12.60;99.90;;;;;;5057609;28;20212;-63
2023/10/15 09:17:09;;;;;;;13.18;12.68;;;12.50;99.90;;;;;;5057091;28;20211;-63
2023/10/15 09:19:36;;;;;;;13.70;13.20;;;12.50;99.90;;;;;;5055044;28;20212;-63
2023/10/15 09:22:05;;;;;;;14.87;14.27;;;12.50;99.90;;;;;;5054254;28;20509;-62
2023/10/15 09:24:33;;;;;;;13.68;13.07;;;12.60;99.90;;;;;;5053370;28;20236;-63
2023/10/15 09:27:01;;;;;;;13.53;13.03;;;12.90;99.90;;;;;;5054345;28;20211;-64
2023/10/15 09:29:30;;;;;;;13.23;12.73;;;12.80;99.90;;;;;;5053498;28;20347;-64
2023/10/15 09:32:01;;;;;;;23.05;22.17;;;13.10;99.90;;;;;;5052308;28;20291;-63
2023/10/15 09:34:28;;;;;;;16.10;15.40;;;13.30;99.90;;;;;;5053725;28;20196;-65
2023/10/15 09:36:55;;;;;;;13.40;12.90;;;13.30;99.90;;;;;;5053277;28;20570;-63
2023/10/15 09:39:22;;;;;;;14.70;14.20;;;13.20;99.90;;;;;;5053258;28;20616;-64
2023/10/15 09:41:51;;;;;;;14.15;13.55;;;13.10;99.90;;;;;;5053800;28;20568;-63
2023/10/15 09:44:18;;;;;;;13.82;13.25;;;13.20;99.90;;;;;;5053082;28;20219;-63
2023/10/15 09:46:46;;;;;;;13.57;13.07;;;13.20;99.90;;;;;;5052578;28;20204;-62
2023/10/15 09:49:13;;;;;;;12.82;12.32;;;13.50;99.90;;;;;;5053299;28;20231;-63
2023/10/15 09:51:41;;;;;;;16.03;15.37;;;13.70;99.90;;;;;;5052181;28;20576;-64
2023/10/15 09:54:10;;;;;;;16.93;16.23;;;14.10;99.90;;;;;;5053232;28;20719;-64
2023/10/15 09:56:40;;;;;;;15.17;14.60;;;14.30;99.90;;;;;;5053973;28;20208;-63
2023/10/15 09:59:09;;;;;;;22.13;21.33;;;14.30;99.90;;;;;;5051215;28;20702;-64
2023/10/15 10:01:39;;;;;;;16.73;16.07;;;13.80;99.90;;;;;;5053342;28;20297;-63
2023/10/15 10:04:48;;;;;;;13.15;12.65;;;13.60;99.90;;;;;;5051945;28;20224;-64
2023/10/15 10:07:43;;;;;;;17.05;16.45;;;13.80;99.90;;;;;;5055461;28;20287;-64
2023/10/15 10:10:39;;;;;;;14.77;14.17;;;13.80;99.90;;;;;;5053368;28;20208;-65
2023/10/15 10:13:32;;;;;;;17.77;17.07;;;13.60;99.90;;;;;;5053164;28;20208;-64
2023/10/15 10:16:00;;;;;;;13.48;12.98;;;13.40;99.90;;;;;;5053527;28;20553;-64
2023/10/15 10:18:33;;;;;;;20.80;20.00;;;13.30;99.90;;;;;;5053124;28;20220;-65
2023/10/15 10:21:11;;;;;;;14.20;13.70;;;13.10;99.90;;;;;;5052549;28;20211;-64
2023/10/15 10:23:38;;;;;;;15.57;14.97;;;13.10;99.90;;;;;;5053002;28;20215;-64
2023/10/15 10:26:12;;;;;;;14.80;14.30;;;13.00;99.90;;;;;;5052800;28;20203;-63
2023/10/15 10:28:39;;;;;;;13.83;13.33;;;13.10;99.90;;;;;;5052645;28;20224;-62
2023/10/15 10:31:08;;;;;;;13.80;13.30;;;13.50;99.90;;;;;;5051382;28;20200;-63
2023/10/15 10:33:54;;;;;;;19.00;18.30;;;13.90;99.90;;;;;;5053572;28;20212;-63
2023/10/15 10:36:21;;;;;;;13.43;12.93;;;14.20;99.90;;;;;;5052574;28;20207;-64
2023/10/15 10:38:59;;;;;;;13.98;13.48;;;14.50;99.90;;;;;;5050618;28;20224;-62
2023/10/15 10:41:35;;;;;;;25.67;24.63;;;14.50;99.90;;;;;;5052349;28;20208;-63
2023/10/15 10:44:02;;;;;;;17.87;17.23;;;14.30;99.90;;;;;;5052127;28;20767;-64
2023/10/15 10:46:30;;;;;;;21.75;20.95;;;13.90;99.90;;;;;;5052366;28;20196;-65
2023/10/15 10:49:05;;;;;;;14.38;13.85;;;13.70;99.90;;;;;;5063126;28;20220;-64
2023/10/15 10:51:33;;;;;;;13.13;12.63;;;13.80;99.90;;;;;;5056914;28;20226;-64
2023/10/15 10:54:26;;;;;;;14.48;13.98;;;14.00;99.90;;;;;;5056035;28;20243;-64
2023/10/15 10:57:07;;;;;;;14.87;14.37;;;14.30;99.90;;;;;;5052197;28;20196;-64
2023/10/15 10:59:34;;;;;;;13.45;12.95;;;14.50;99.90;;;;;;5052256;28;20703;-64
2023/10/15 11:02:04;;;;;;;13.57;13.07;;;14.70;99.90;;;;;;5052572;28;20211;-63
2023/10/15 11:04:31;;;;;;;12.90;12.50;;;15.00;99.90;;;;;;5054421;28;20224;-62
2023/10/15 11:06:58;;;;;;;14.10;13.60;;;15.30;99.90;;;;;;5053088;28;20200;-62
2023/10/15 11:09:25;;;;;;;15.90;15.30;;;15.30;99.90;;;;;;5052232;28;20235;-63
2023/10/15 11:11:53;;;;;;;14.57;14.07;;;15.20;99.90;;;;;;5051520;28;20568;-63
2023/10/15 11:14:23;;;;;;;13.20;12.80;;;15.20;99.90;;;;;;5053040;28;20200;-64
2023/10/15 11:16:50;;;;;;;12.97;12.57;;;15.20;99.90;;;;;;5052207;28;20222;-64
2023/10/15 11:19:19;;;;;;;13.50;13.00;;;15.30;99.90;;;;;;5053598;28;20232;-63
2023/10/15 11:21:46;;;;;;;13.07;12.63;;;15.50;99.90;;;;;;5055435;28;20208;-63
2023/10/15 11:24:14;;;;;;;13.83;13.30;;;15.70;99.90;;;;;;5054288;28;20223;-63
2023/10/15 11:26:42;;;;;;;14.20;13.70;;;15.80;99.90;;;;;;5054900;28;20204;-63
2023/10/15 11:29:10;;;;;;;13.20;12.70;;;15.70;99.90;;;;;;5054691;28;20235;-63
2023/10/15 11:31:37;;;;;;;12.10;11.70;;;15.70;99.90;;;;;;5052504;28;20236;-63
2023/10/15 11:34:05;;;;;;;21.37;20.53;;;15.80;99.90;;;;;;5051534;28;20203;-64
2023/10/15 11:36:36;;;;;;;17.48;16.77;;;15.60;99.90;;;;;;5050634;28;20591;-64
2023/10/15 11:39:08;;;;;;;12.73;12.33;;;15.30;99.90;;;;;;5050903;28;20228;-63
2023/10/15 11:41:36;;;;;;;16.98;16.38;;;15.10;99.90;;;;;;5050726;28;20212;-64
2023/10/15 11:44:06;;;;;;;13.37;12.87;;;15.20;99.90;;;;;;5051059;28;20227;-63
2023/10/15 11:46:35;;;;;;;14.65;14.15;;;15.10;99.90;;;;;;5051355;28;20218;-64
2023/10/15 11:49:03;;;;;;;12.88;12.48;;;14.90;99.90;;;;;;5050379;28;20705;-64
2023/10/15 11:51:30;;;;;;;15.75;15.20;;;15.00;99.90;;;;;;5050087;28;20665;-63
2023/10/15 11:54:02;;;;;;;13.80;13.30;;;14.90;99.90;;;;;;5051206;28;20220;-64
2023/10/15 11:56:31;;;;;;;12.20;11.80;;;14.80;99.90;;;;;;5051480;28;20200;-64
2023/10/15 11:58:58;;;;;;;12.50;12.10;;;14.60;99.90;;;;;;5050886;28;20246;-63
2023/10/15 12:01:26;;;;;;;16.00;15.40;;;14.50;99.90;;;;;;5051108;28;20754;-64
2023/10/15 12:03:56;;;;;;;12.65;12.25;;;14.40;99.90;;;;;;5050805;28;20720;-64
2023/10/15 12:06:22;;;;;;;12.57;12.18;;;14.20;99.90;;;;;;5050402;28;20589;-63
2023/10/15 12:08:50;;;;;;;16.17;15.57;;;14.30;99.90;;;;;;5051016;28;20227;-64
2023/10/15 12:11:18;;;;;;;13.35;12.85;;;14.50;99.90;;;;;;5050949;28;20211;-64
2023/10/15 12:13:47;;;;;;;16.80;16.20;;;14.60;99.90;;;;;;5049861;28;20282;-64
2023/10/15 12:16:14;;;;;;;15.02;14.52;;;14.80;99.90;;;;;;5051051;28;20546;-64
2023/10/15 12:18:41;;;;;;;17.98;17.25;;;14.80;99.90;;;;;;5050738;28;20227;-63
2023/10/15 12:21:07;;;;;;;12.97;12.50;;;14.80;99.90;;;;;;5048780;28;20208;-64
2023/10/15 12:23:34;;;;;;;12.48;12.07;;;15.00;99.90;;;;;;5051451;28;20603;-63
2023/10/15 12:26:02;;;;;;;13.37;12.87;;;15.20;99.90;;;;;;5055246;28;20207;-63
2023/10/15 12:28:30;;;;;;;12.53;12.03;;;15.40;99.90;;;;;;5066924;28;20289;-63
2023/10/15 12:30:57;;;;;;;13.17;12.67;;;15.60;99.90;;;;;;5053209;28;20581;-64
2023/10/15 12:33:23;;;;;;;12.97;12.47;;;15.70;99.90;;;;;;5051129;28;20221;-64
2023/10/15 12:35:51;;;;;;;13.27;12.87;;;15.70;99.90;;;;;;5051584;28;20207;-64
2023/10/15 12:38:26;;;;;;;14.48;13.98;;;15.90;99.90;;;;;;5051273;28;20267;-64
2023/10/15 12:40:55;;;;;;;14.30;13.80;;;15.90;99.90;;;;;;5051421;28;20257;-64